createdAt,value
2018-03-31T00:00:31.078Z,20.62
2018-03-31T00:01:02.702Z,20.60
2018-03-31T00:01:34.334Z,20.62
2018-03-31T00:02:05.957Z,20.62
2018-03-31T00:02:37.579Z,20.63
2018-03-31T00:03:09.214Z,20.67
2018-03-31T00:03:40.849Z,20.64
2018-03-31T00:04:12.522Z,20.65
2018-03-31T00:04:44.154Z,20.66
2018-03-31T00:05:15.778Z,20.68
2018-03-31T00:05:47.402Z,20.70
2018-03-31T00:06:19.070Z,20.71
2018-03-31T00:06:50.694Z,20.70
2018-03-31T00:07:22.327Z,20.70
2018-03-31T00:07:53.949Z,20.67
2018-03-31T00:08:25.620Z,20.68
2018-03-31T00:08:57.251Z,20.69
2018-03-31T00:09:28.874Z,20.71
2018-03-31T00:10:00.498Z,20.69
2018-03-31T00:10:32.125Z,20.70
2018-03-31T00:11:03.754Z,20.71
2018-03-31T00:11:35.379Z,20.70
2018-03-31T00:12:07.005Z,20.72
2018-03-31T00:12:38.625Z,20.72
2018-03-31T00:13:10.302Z,20.71
2018-03-31T00:13:41.935Z,20.71
2018-03-31T00:14:13.562Z,20.73
2018-03-31T00:14:45.187Z,20.73
2018-03-31T00:15:16.812Z,20.72
2018-03-31T00:15:48.433Z,20.71
2018-03-31T00:16:20.062Z,20.68
2018-03-31T00:16:51.691Z,20.69
2018-03-31T00:17:23.373Z,20.69
2018-03-31T00:17:54.994Z,20.70
2018-03-31T00:18:26.619Z,20.71
2018-03-31T00:18:58.242Z,20.69
2018-03-31T00:19:29.970Z,20.72
2018-03-31T00:20:01.603Z,20.72
2018-03-31T00:20:33.234Z,20.72
2018-03-31T00:21:04.857Z,20.72
2018-03-31T00:21:36.542Z,20.72
2018-03-31T00:22:08.193Z,20.69
2018-03-31T00:22:39.830Z,20.68
2018-03-31T00:23:11.454Z,20.70
2018-03-31T00:23:43.082Z,20.69
2018-03-31T00:24:14.706Z,20.70
2018-03-31T00:24:46.338Z,20.70
2018-03-31T00:25:17.980Z,20.69
2018-03-31T00:25:49.613Z,20.69
2018-03-31T00:26:21.242Z,20.68
2018-03-31T00:26:52.909Z,20.65
2018-03-31T00:27:24.534Z,20.66
2018-03-31T00:27:56.157Z,20.67
2018-03-31T00:28:27.786Z,20.66
2018-03-31T00:28:59.409Z,20.66
2018-03-31T00:29:31.030Z,20.63
2018-03-31T00:30:02.655Z,20.64
2018-03-31T00:30:34.286Z,20.66
2018-03-31T00:31:05.917Z,20.68
2018-03-31T00:31:37.594Z,20.68
2018-03-31T00:32:09.267Z,20.69
2018-03-31T00:32:40.902Z,20.70
2018-03-31T00:33:12.525Z,20.67
2018-03-31T00:33:44.205Z,20.66
2018-03-31T00:34:15.842Z,20.65
2018-03-31T00:34:47.466Z,20.65
2018-03-31T00:35:19.090Z,20.66
2018-03-31T00:35:50.714Z,20.64
2018-03-31T00:36:22.338Z,20.65
2018-03-31T00:36:53.966Z,20.64
2018-03-31T00:37:25.594Z,20.63
2018-03-31T00:37:57.222Z,20.61
2018-03-31T00:38:28.846Z,20.62
2018-03-31T00:39:00.522Z,20.63
2018-03-31T00:39:32.154Z,20.62
2018-03-31T00:40:03.778Z,20.61
2018-03-31T00:40:35.407Z,20.59
2018-03-31T00:41:07.035Z,20.61
2018-03-31T00:41:38.658Z,20.61
2018-03-31T00:42:10.282Z,20.62
2018-03-31T00:42:41.906Z,20.60
2018-03-31T00:43:13.537Z,20.59
2018-03-31T00:43:45.167Z,20.57
2018-03-31T00:44:16.846Z,20.54
2018-03-31T00:44:48.482Z,20.56
2018-03-31T00:45:20.110Z,20.52
2018-03-31T00:45:51.733Z,20.52
2018-03-31T00:46:23.354Z,20.48
2018-03-31T00:46:54.981Z,20.49
2018-03-31T00:47:26.614Z,20.48
2018-03-31T00:47:58.242Z,20.46
2018-03-31T00:48:29.871Z,20.42
2018-03-31T00:49:01.497Z,20.43
2018-03-31T00:49:33.166Z,20.42
2018-03-31T00:50:04.804Z,20.42
2018-03-31T00:50:36.439Z,20.43
2018-03-31T00:51:08.108Z,20.42
2018-03-31T00:51:39.738Z,20.41
2018-03-31T00:52:11.366Z,20.41
2018-03-31T00:52:42.995Z,20.38
2018-03-31T00:53:14.626Z,20.38
2018-03-31T00:53:46.250Z,20.37
2018-03-31T00:54:17.926Z,20.39
2018-03-31T00:54:49.550Z,20.39
2018-03-31T00:55:21.173Z,20.39
2018-03-31T00:55:52.794Z,20.39
2018-03-31T00:56:24.422Z,20.38
2018-03-31T00:56:56.054Z,20.36
2018-03-31T00:57:27.678Z,20.37
2018-03-31T00:57:59.326Z,20.37
2018-03-31T00:58:30.954Z,20.36
2018-03-31T00:59:02.582Z,20.37
2018-03-31T00:59:34.246Z,20.36
2018-03-31T01:00:05.886Z,20.34
2018-03-31T01:00:37.510Z,20.37
2018-03-31T01:01:09.138Z,20.34
2018-03-31T01:01:40.761Z,20.36
2018-03-31T01:02:12.391Z,20.32
2018-03-31T01:02:44.014Z,20.33
2018-03-31T01:03:15.642Z,20.36
2018-03-31T01:03:47.265Z,20.35
2018-03-31T01:04:18.894Z,20.32
2018-03-31T01:04:50.570Z,20.33
2018-03-31T01:05:22.195Z,20.34
2018-03-31T01:05:53.873Z,20.33
2018-03-31T01:06:25.502Z,20.33
2018-03-31T01:06:57.130Z,20.31
2018-03-31T01:07:28.754Z,20.33
2018-03-31T01:08:00.378Z,20.31
2018-03-31T01:08:32.005Z,20.32
2018-03-31T01:09:03.638Z,20.32
2018-03-31T01:09:35.271Z,20.33
2018-03-31T01:10:06.894Z,20.34
2018-03-31T01:10:38.528Z,20.34
2018-03-31T01:11:10.201Z,20.34
2018-03-31T01:11:41.826Z,20.37
2018-03-31T01:12:13.449Z,20.38
2018-03-31T01:12:45.075Z,20.38
2018-03-31T01:13:16.710Z,20.37
2018-03-31T01:13:48.378Z,20.38
2018-03-31T01:14:20.011Z,20.36
2018-03-31T01:14:51.642Z,20.37
2018-03-31T01:15:23.266Z,20.33
2018-03-31T01:15:54.895Z,20.34
2018-03-31T01:16:26.562Z,20.34
2018-03-31T01:16:58.191Z,20.34
2018-03-31T01:17:29.822Z,20.34
2018-03-31T01:18:01.450Z,20.35
2018-03-31T01:18:33.074Z,20.34
2018-03-31T01:19:04.703Z,20.33
2018-03-31T01:19:36.374Z,20.33
2018-03-31T01:20:07.998Z,20.31
2018-03-31T01:20:39.622Z,20.33
2018-03-31T01:21:11.250Z,20.33
2018-03-31T01:21:42.875Z,20.33
2018-03-31T01:22:14.497Z,20.34
2018-03-31T01:22:46.126Z,20.37
2018-03-31T01:23:17.755Z,20.36
2018-03-31T01:23:49.390Z,20.35
2018-03-31T01:24:21.045Z,20.34
2018-03-31T01:24:52.670Z,20.34
2018-03-31T01:25:24.298Z,20.34
2018-03-31T01:25:55.926Z,20.34
2018-03-31T01:26:27.553Z,20.34
2018-03-31T01:26:59.177Z,20.34
2018-03-31T01:27:30.807Z,20.34
2018-03-31T01:28:02.439Z,20.35
2018-03-31T01:28:34.066Z,20.34
2018-03-31T01:29:05.834Z,20.32
2018-03-31T01:29:37.467Z,20.34
2018-03-31T01:30:09.094Z,20.36
2018-03-31T01:30:40.718Z,20.34
2018-03-31T01:31:12.351Z,20.33
2018-03-31T01:31:44.022Z,20.35
2018-03-31T01:32:15.647Z,20.33
2018-03-31T01:32:47.269Z,20.34
2018-03-31T01:33:18.894Z,20.34
2018-03-31T01:33:50.522Z,20.34
2018-03-31T01:34:22.198Z,20.34
2018-03-31T01:34:53.826Z,20.35
2018-03-31T01:35:25.450Z,20.35
2018-03-31T01:35:57.078Z,20.38
2018-03-31T01:36:28.702Z,20.37
2018-03-31T01:37:00.331Z,20.37
2018-03-31T01:37:31.956Z,20.38
2018-03-31T01:38:03.590Z,20.40
2018-03-31T01:38:35.214Z,20.40
2018-03-31T01:39:06.842Z,20.42
2018-03-31T01:39:38.510Z,20.43
2018-03-31T01:40:10.134Z,20.44
2018-03-31T01:40:41.759Z,20.41
2018-03-31T01:41:13.386Z,20.42
2018-03-31T01:41:45.010Z,20.41
2018-03-31T01:42:16.635Z,20.39
2018-03-31T01:42:48.262Z,20.39
2018-03-31T01:43:19.892Z,20.41
2018-03-31T01:43:51.694Z,20.42
2018-03-31T01:44:23.364Z,20.40
2018-03-31T01:44:54.995Z,20.38
2018-03-31T01:45:26.626Z,20.38
2018-03-31T01:45:58.249Z,20.38
2018-03-31T01:46:29.880Z,20.35
2018-03-31T01:47:01.506Z,20.38
2018-03-31T01:47:33.174Z,20.37
2018-03-31T01:48:04.803Z,20.36
2018-03-31T01:48:36.434Z,20.37
2018-03-31T01:49:08.066Z,20.39
2018-03-31T01:49:39.758Z,20.39
2018-03-31T01:50:11.386Z,20.38
2018-03-31T01:50:43.014Z,20.38
2018-03-31T01:51:14.689Z,20.39
2018-03-31T01:51:46.313Z,20.29
2018-03-31T01:52:17.946Z,20.39
2018-03-31T01:52:49.574Z,20.30
2018-03-31T01:53:21.415Z,20.38
2018-03-31T01:53:53.041Z,20.40
2018-03-31T01:54:24.670Z,20.40
2018-03-31T01:54:56.295Z,20.39
2018-03-31T01:55:27.926Z,20.38
2018-03-31T01:55:59.553Z,20.39
2018-03-31T01:56:31.182Z,20.39
2018-03-31T01:57:02.807Z,20.37
2018-03-31T01:57:34.434Z,20.38
2018-03-31T01:58:06.063Z,20.36
2018-03-31T01:58:37.690Z,20.36
2018-03-31T01:59:09.315Z,20.40
2018-03-31T01:59:40.986Z,20.38
2018-03-31T02:00:12.642Z,20.40
2018-03-31T02:00:44.278Z,20.42
2018-03-31T02:01:15.906Z,20.40
2018-03-31T02:01:47.530Z,20.39
2018-03-31T02:02:19.354Z,20.41
2018-03-31T02:02:50.982Z,20.41
2018-03-31T02:03:22.654Z,20.41
2018-03-31T02:03:54.290Z,20.41
2018-03-31T02:04:25.916Z,20.42
2018-03-31T02:04:57.538Z,20.43
2018-03-31T02:05:29.213Z,20.42
2018-03-31T02:06:00.839Z,20.40
2018-03-31T02:06:32.526Z,20.40
2018-03-31T02:07:04.130Z,20.38
2018-03-31T02:07:35.762Z,20.38
2018-03-31T02:08:07.386Z,20.36
2018-03-31T02:08:39.014Z,20.38
2018-03-31T02:09:10.637Z,20.38
2018-03-31T02:09:42.262Z,20.40
2018-03-31T02:10:13.885Z,20.40
2018-03-31T02:10:45.558Z,20.40
2018-03-31T02:11:17.181Z,20.37
2018-03-31T02:11:48.801Z,20.36
2018-03-31T02:12:20.426Z,20.35
2018-03-31T02:12:52.059Z,20.33
2018-03-31T02:13:23.692Z,20.35
2018-03-31T02:13:55.316Z,20.34
2018-03-31T02:14:26.946Z,20.35
2018-03-31T02:14:58.575Z,20.33
2018-03-31T02:15:30.210Z,20.34
2018-03-31T02:16:01.878Z,20.35
2018-03-31T02:16:33.507Z,20.35
2018-03-31T02:17:05.134Z,20.33
2018-03-31T02:17:36.762Z,20.33
2018-03-31T02:18:08.386Z,20.32
2018-03-31T02:18:40.019Z,20.33
2018-03-31T02:19:11.651Z,20.33
2018-03-31T02:19:43.326Z,20.31
2018-03-31T02:20:14.951Z,20.30
2018-03-31T02:20:46.586Z,20.31
2018-03-31T02:21:18.215Z,20.31
2018-03-31T02:21:49.841Z,20.31
2018-03-31T02:22:21.470Z,20.30
2018-03-31T02:22:53.095Z,20.28
2018-03-31T02:23:24.751Z,20.29
2018-03-31T02:23:56.378Z,20.28
2018-03-31T02:24:28.001Z,20.28
2018-03-31T02:24:59.672Z,20.28
2018-03-31T02:25:31.314Z,20.26
2018-03-31T02:26:02.942Z,20.25
2018-03-31T02:26:34.570Z,20.25
2018-03-31T02:27:06.197Z,20.25
2018-03-31T02:27:37.826Z,20.24
2018-03-31T02:28:09.453Z,20.24
2018-03-31T02:28:41.077Z,20.24
2018-03-31T02:29:12.710Z,20.24
2018-03-31T02:29:44.389Z,20.25
2018-03-31T02:30:16.019Z,20.25
2018-03-31T02:30:47.647Z,20.26
2018-03-31T02:31:19.275Z,20.23
2018-03-31T02:31:50.906Z,20.24
2018-03-31T02:32:22.529Z,20.24
2018-03-31T02:32:54.159Z,20.24
2018-03-31T02:33:25.791Z,20.23
2018-03-31T02:33:57.414Z,20.22
2018-03-31T02:34:29.035Z,20.19
2018-03-31T02:35:00.720Z,20.21
2018-03-31T02:35:32.347Z,20.21
2018-03-31T02:36:03.985Z,20.20
2018-03-31T02:36:35.620Z,20.20
2018-03-31T02:37:07.253Z,20.19
2018-03-31T02:37:38.957Z,20.20
2018-03-31T02:38:10.587Z,20.21
2018-03-31T02:38:42.216Z,20.20
2018-03-31T02:39:13.843Z,20.20
2018-03-31T02:39:45.472Z,20.19
2018-03-31T02:40:17.138Z,20.18
2018-03-31T02:40:48.767Z,20.16
2018-03-31T02:41:20.396Z,20.16
2018-03-31T02:41:52.024Z,20.16
2018-03-31T02:42:23.660Z,20.15
2018-03-31T02:42:55.288Z,20.16
2018-03-31T02:43:26.914Z,20.16
2018-03-31T02:43:58.546Z,20.17
2018-03-31T02:44:30.178Z,20.17
2018-03-31T02:45:01.807Z,20.16
2018-03-31T02:45:33.440Z,20.16
2018-03-31T02:46:05.079Z,20.18
2018-03-31T02:46:36.712Z,20.17
2018-03-31T02:47:08.378Z,20.17
2018-03-31T02:47:40.042Z,20.18
2018-03-31T02:48:11.722Z,20.18
2018-03-31T02:48:43.390Z,20.18
2018-03-31T02:49:15.018Z,20.20
2018-03-31T02:49:46.651Z,20.19
2018-03-31T02:50:18.278Z,20.18
2018-03-31T02:50:49.903Z,20.18
2018-03-31T02:51:21.527Z,20.19
2018-03-31T02:51:53.155Z,20.21
2018-03-31T02:52:24.790Z,20.23
2018-03-31T02:52:56.414Z,20.23
2018-03-31T02:53:28.081Z,19.88
2018-03-31T02:53:59.754Z,20.25
2018-03-31T02:54:31.383Z,20.28
2018-03-31T02:55:03.062Z,20.31
2018-03-31T02:55:34.691Z,20.31
2018-03-31T02:56:06.316Z,20.34
2018-03-31T02:56:37.942Z,20.33
2018-03-31T02:57:09.578Z,20.32
2018-03-31T02:57:41.207Z,20.34
2018-03-31T02:58:12.839Z,20.34
2018-03-31T02:58:44.471Z,20.35
2018-03-31T02:59:16.103Z,20.36
2018-03-31T02:59:47.725Z,20.36
2018-03-31T03:00:19.417Z,20.36
2018-03-31T03:00:51.043Z,20.35
2018-03-31T03:01:22.678Z,20.36
2018-03-31T03:01:54.306Z,20.35
2018-03-31T03:02:25.939Z,20.42
2018-03-31T03:02:57.570Z,20.44
2018-03-31T03:03:29.202Z,20.46
2018-03-31T03:04:00.834Z,20.45
2018-03-31T03:04:32.469Z,20.47
2018-03-31T03:05:04.103Z,20.48
2018-03-31T03:05:35.783Z,20.50
2018-03-31T03:06:07.406Z,20.49
2018-03-31T03:06:39.035Z,20.50
2018-03-31T03:07:10.667Z,20.51
2018-03-31T03:07:42.298Z,20.47
2018-03-31T03:08:13.930Z,20.47
2018-03-31T03:08:45.556Z,20.48
2018-03-31T03:09:17.183Z,20.51
2018-03-31T03:09:48.810Z,20.55
2018-03-31T03:10:20.442Z,20.54
2018-03-31T03:10:52.115Z,20.54
2018-03-31T03:11:23.794Z,20.54
2018-03-31T03:11:55.421Z,20.60
2018-03-31T03:12:27.053Z,20.57
2018-03-31T03:12:58.682Z,20.60
2018-03-31T03:13:30.311Z,20.57
2018-03-31T03:14:01.938Z,20.62
2018-03-31T03:14:33.562Z,20.60
2018-03-31T03:15:05.194Z,20.60
2018-03-31T03:15:36.821Z,20.58
2018-03-31T03:16:08.446Z,20.58
2018-03-31T03:16:40.113Z,20.58
2018-03-31T03:17:11.787Z,20.59
2018-03-31T03:17:43.413Z,20.58
2018-03-31T03:18:15.038Z,20.59
2018-03-31T03:18:46.668Z,20.62
2018-03-31T03:19:18.295Z,20.63
2018-03-31T03:19:49.918Z,20.64
2018-03-31T03:20:21.546Z,20.60
2018-03-31T03:20:53.173Z,20.57
2018-03-31T03:21:24.798Z,20.61
2018-03-31T03:21:56.435Z,20.58
2018-03-31T03:22:28.066Z,20.60
2018-03-31T03:22:59.694Z,20.59
2018-03-31T03:23:31.362Z,20.59
2018-03-31T03:24:02.989Z,20.60
2018-03-31T03:24:34.614Z,20.59
2018-03-31T03:25:06.242Z,20.57
2018-03-31T03:25:37.870Z,20.59
2018-03-31T03:26:09.498Z,20.60
2018-03-31T03:26:41.127Z,20.60
2018-03-31T03:27:12.762Z,20.58
2018-03-31T03:27:44.391Z,20.56
2018-03-31T03:28:16.062Z,20.56
2018-03-31T03:28:47.685Z,20.57
2018-03-31T03:29:19.315Z,20.57
2018-03-31T03:29:50.950Z,20.60
2018-03-31T03:30:22.623Z,20.60
2018-03-31T03:30:54.251Z,20.58
2018-03-31T03:31:25.888Z,20.57
2018-03-31T03:31:57.518Z,20.58
2018-03-31T03:32:29.174Z,20.57
2018-03-31T03:33:00.797Z,20.55
2018-03-31T03:33:32.418Z,20.54
2018-03-31T03:34:04.087Z,20.51
2018-03-31T03:34:35.714Z,20.51
2018-03-31T03:35:07.342Z,20.49
2018-03-31T03:35:39.006Z,20.51
2018-03-31T03:36:10.634Z,20.50
2018-03-31T03:36:42.264Z,20.47
2018-03-31T03:37:13.886Z,20.46
2018-03-31T03:37:45.510Z,20.45
2018-03-31T03:38:17.134Z,20.43
2018-03-31T03:38:48.762Z,20.42
2018-03-31T03:39:20.381Z,20.40
2018-03-31T03:39:52.006Z,20.38
2018-03-31T03:40:23.683Z,20.36
2018-03-31T03:40:55.305Z,20.35
2018-03-31T03:41:26.935Z,20.31
2018-03-31T03:41:58.558Z,20.30
2018-03-31T03:42:30.183Z,20.29
2018-03-31T03:43:01.811Z,20.29
2018-03-31T03:43:33.434Z,20.28
2018-03-31T03:44:05.062Z,20.28
2018-03-31T03:44:36.690Z,20.27
2018-03-31T03:45:08.367Z,20.26
2018-03-31T03:45:39.990Z,20.31
2018-03-31T03:46:11.623Z,20.30
2018-03-31T03:46:43.246Z,20.28
2018-03-31T03:47:14.879Z,20.29
2018-03-31T03:47:46.502Z,20.24
2018-03-31T03:48:18.125Z,20.25
2018-03-31T03:48:49.755Z,20.24
2018-03-31T03:49:21.378Z,20.22
2018-03-31T03:49:53.006Z,20.20
2018-03-31T03:50:24.674Z,20.19
2018-03-31T03:50:56.298Z,20.19
2018-03-31T03:51:27.930Z,20.17
2018-03-31T03:51:59.558Z,20.17
2018-03-31T03:52:31.190Z,20.19
2018-03-31T03:53:02.814Z,20.16
2018-03-31T03:53:34.442Z,20.17
2018-03-31T03:54:06.066Z,20.15
2018-03-31T03:54:37.695Z,20.15
2018-03-31T03:55:09.322Z,20.15
2018-03-31T03:55:40.986Z,20.15
2018-03-31T03:56:12.610Z,20.15
2018-03-31T03:56:44.318Z,20.15
2018-03-31T03:57:15.943Z,20.16
2018-03-31T03:57:47.569Z,20.15
2018-03-31T03:58:19.190Z,20.14
2018-03-31T03:58:50.814Z,20.13
2018-03-31T03:59:22.439Z,20.18
2018-03-31T03:59:54.067Z,20.23
2018-03-31T04:00:25.727Z,20.22
2018-03-31T04:00:57.351Z,20.18
2018-03-31T04:01:28.978Z,20.13
2018-03-31T04:02:00.606Z,20.11
2018-03-31T04:02:32.279Z,20.08
2018-03-31T04:03:03.906Z,20.12
2018-03-31T04:03:35.530Z,20.11
2018-03-31T04:04:07.154Z,20.12
2018-03-31T04:04:38.786Z,20.15
2018-03-31T04:05:10.409Z,20.14
2018-03-31T04:05:42.043Z,20.13
2018-03-31T04:06:13.669Z,20.12
2018-03-31T04:06:45.294Z,20.15
2018-03-31T04:07:16.982Z,20.15
2018-03-31T04:07:48.605Z,20.13
2018-03-31T04:08:20.298Z,20.11
2018-03-31T04:08:51.922Z,20.10
2018-03-31T04:09:23.547Z,20.11
2018-03-31T04:09:55.178Z,20.11
2018-03-31T04:10:26.798Z,20.11
2018-03-31T04:10:58.417Z,20.11
2018-03-31T04:11:30.038Z,20.11
2018-03-31T04:12:01.671Z,20.13
2018-03-31T04:12:33.303Z,20.13
2018-03-31T04:13:04.930Z,20.14
2018-03-31T04:13:36.597Z,20.17
2018-03-31T04:14:08.226Z,20.17
2018-03-31T04:14:39.854Z,20.16
2018-03-31T04:15:11.479Z,20.17
2018-03-31T04:15:43.103Z,20.15
2018-03-31T04:16:14.774Z,20.15
2018-03-31T04:16:46.398Z,20.12
2018-03-31T04:17:18.030Z,20.15
2018-03-31T04:17:49.663Z,20.16
2018-03-31T04:18:21.286Z,20.18
2018-03-31T04:18:52.917Z,20.19
2018-03-31T04:19:24.548Z,20.21
2018-03-31T04:19:56.175Z,20.21
2018-03-31T04:20:27.797Z,20.22
2018-03-31T04:20:59.418Z,20.25
2018-03-31T04:21:31.046Z,20.26
2018-03-31T04:22:02.669Z,20.30
2018-03-31T04:22:34.298Z,20.32
2018-03-31T04:23:05.930Z,20.34
2018-03-31T04:23:37.555Z,20.37
2018-03-31T04:24:09.178Z,20.41
2018-03-31T04:24:40.801Z,20.40
2018-03-31T04:25:12.426Z,20.40
2018-03-31T04:25:44.090Z,20.44
2018-03-31T04:26:15.758Z,20.40
2018-03-31T04:26:47.426Z,20.43
2018-03-31T04:27:19.057Z,20.44
2018-03-31T04:27:50.679Z,20.44
2018-03-31T04:28:22.304Z,20.43
2018-03-31T04:28:53.938Z,20.43
2018-03-31T04:29:25.567Z,20.43
2018-03-31T04:29:57.190Z,20.44
2018-03-31T04:30:28.815Z,20.43
2018-03-31T04:31:00.446Z,20.43
2018-03-31T04:31:32.079Z,20.45
2018-03-31T04:32:03.746Z,20.45
2018-03-31T04:32:35.370Z,20.47
2018-03-31T04:33:06.999Z,20.46
2018-03-31T04:33:38.670Z,20.46
2018-03-31T04:34:10.294Z,20.45
2018-03-31T04:34:41.918Z,20.46
2018-03-31T04:35:13.549Z,20.47
2018-03-31T04:35:45.175Z,20.48
2018-03-31T04:36:16.801Z,20.45
2018-03-31T04:36:48.426Z,20.43
2018-03-31T04:37:20.054Z,20.47
2018-03-31T04:37:51.682Z,20.44
2018-03-31T04:38:23.305Z,20.45
2018-03-31T04:38:54.974Z,20.43
2018-03-31T04:39:26.658Z,20.42
2018-03-31T04:39:58.282Z,20.44
2018-03-31T04:40:29.905Z,20.43
2018-03-31T04:41:01.530Z,20.46
2018-03-31T04:41:33.159Z,20.46
2018-03-31T04:42:04.790Z,20.47
2018-03-31T04:42:36.419Z,20.42
2018-03-31T04:43:08.090Z,20.45
2018-03-31T04:43:39.728Z,20.48
2018-03-31T04:44:11.358Z,20.44
2018-03-31T04:44:42.982Z,20.44
2018-03-31T04:45:14.610Z,20.45
2018-03-31T04:45:46.238Z,20.46
2018-03-31T04:46:17.867Z,20.47
2018-03-31T04:46:49.497Z,20.46
2018-03-31T04:47:21.122Z,20.47
2018-03-31T04:47:52.785Z,20.45
2018-03-31T04:48:24.413Z,20.44
2018-03-31T04:48:56.055Z,20.48
2018-03-31T04:49:27.686Z,20.47
2018-03-31T04:49:59.373Z,20.47
2018-03-31T04:50:31.014Z,20.49
2018-03-31T04:51:02.638Z,20.46
2018-03-31T04:51:34.315Z,20.48
2018-03-31T04:52:05.948Z,20.44
2018-03-31T04:52:37.589Z,20.47
2018-03-31T04:53:09.238Z,20.46
2018-03-31T04:53:40.866Z,20.46
2018-03-31T04:54:12.515Z,20.47
2018-03-31T04:54:44.138Z,20.44
2018-03-31T04:55:15.762Z,20.44
2018-03-31T04:55:47.386Z,20.45
2018-03-31T04:56:19.066Z,20.44
2018-03-31T04:56:50.706Z,20.41
2018-03-31T04:57:22.331Z,20.43
2018-03-31T04:57:53.953Z,20.42
2018-03-31T04:58:25.582Z,20.41
2018-03-31T04:58:57.210Z,20.41
2018-03-31T04:59:28.842Z,20.41
2018-03-31T05:00:00.515Z,20.42
2018-03-31T05:00:32.143Z,20.39
2018-03-31T05:01:03.766Z,20.39
2018-03-31T05:01:35.413Z,20.39
2018-03-31T05:02:07.078Z,20.40
2018-03-31T05:02:38.706Z,20.40
2018-03-31T05:03:10.376Z,20.36
2018-03-31T05:03:42.020Z,20.39
2018-03-31T05:04:24.070Z,20.36
2018-03-31T05:04:55.718Z,20.33
2018-03-31T05:05:27.410Z,20.35
2018-03-31T05:05:59.050Z,20.34
2018-03-31T05:06:30.694Z,20.34
2018-03-31T05:07:02.322Z,20.33
2018-03-31T05:07:33.945Z,20.33
2018-03-31T05:08:05.602Z,20.33
2018-03-31T05:08:37.232Z,20.31
2018-03-31T05:09:08.869Z,20.30
2018-03-31T05:09:40.498Z,20.29
2018-03-31T05:10:12.127Z,20.25
2018-03-31T05:10:43.754Z,20.26
2018-03-31T05:11:15.383Z,20.23
2018-03-31T05:11:47.029Z,20.19
2018-03-31T05:12:18.762Z,20.19
2018-03-31T05:12:50.407Z,20.19
2018-03-31T05:13:22.066Z,20.19
2018-03-31T05:13:53.690Z,20.18
2018-03-31T05:14:25.318Z,20.17
2018-03-31T05:14:56.949Z,20.16
2018-03-31T05:15:32.390Z,20.14
2018-03-31T05:16:04.042Z,20.11
2018-03-31T05:16:35.718Z,20.11
2018-03-31T05:17:07.342Z,20.10
2018-03-31T05:17:38.975Z,20.10
2018-03-31T05:18:10.607Z,20.10
2018-03-31T05:18:42.233Z,20.09
2018-03-31T05:19:13.869Z,20.08
2018-03-31T05:19:45.493Z,20.08
2018-03-31T05:20:17.118Z,20.05
2018-03-31T05:20:48.758Z,20.05
2018-03-31T05:21:20.386Z,20.03
2018-03-31T05:21:52.049Z,20.03
2018-03-31T05:22:23.683Z,20.02
2018-03-31T05:22:55.312Z,20.02
2018-03-31T05:23:26.934Z,20.01
2018-03-31T05:23:58.565Z,19.96
2018-03-31T05:24:30.191Z,20.02
2018-03-31T05:25:01.814Z,20.02
2018-03-31T05:25:33.442Z,19.92
2018-03-31T05:26:05.105Z,20.01
2018-03-31T05:26:36.732Z,20.00
2018-03-31T05:27:08.357Z,20.00
2018-03-31T05:27:40.030Z,20.00
2018-03-31T05:28:11.713Z,20.00
2018-03-31T05:28:43.342Z,20.00
2018-03-31T05:29:14.966Z,20.01
2018-03-31T05:29:46.594Z,20.00
2018-03-31T05:30:18.223Z,19.99
2018-03-31T05:30:49.850Z,20.00
2018-03-31T05:31:21.470Z,20.00
2018-03-31T05:31:53.106Z,20.01
2018-03-31T05:32:24.730Z,20.01
2018-03-31T05:32:56.363Z,20.01
2018-03-31T05:33:28.002Z,20.04
2018-03-31T05:33:59.670Z,20.06
2018-03-31T05:34:31.302Z,20.07
2018-03-31T05:35:02.929Z,20.08
2018-03-31T05:35:34.558Z,20.06
2018-03-31T05:36:06.190Z,20.07
2018-03-31T05:36:37.839Z,20.06
2018-03-31T05:37:09.478Z,20.05
2018-03-31T05:37:41.101Z,20.06
2018-03-31T05:38:12.726Z,20.07
2018-03-31T05:38:44.350Z,20.09
2018-03-31T05:39:15.974Z,20.15
2018-03-31T05:39:47.716Z,20.18
2018-03-31T05:40:19.358Z,20.21
2018-03-31T05:40:50.982Z,20.22
2018-03-31T05:41:22.610Z,20.23
2018-03-31T05:41:54.231Z,20.24
2018-03-31T05:42:25.862Z,20.22
2018-03-31T05:42:57.489Z,20.24
2018-03-31T05:43:29.118Z,20.29
2018-03-31T05:44:00.786Z,20.30
2018-03-31T05:44:32.414Z,20.32
2018-03-31T05:45:04.062Z,20.34
2018-03-31T05:45:35.686Z,20.35
2018-03-31T05:46:07.368Z,20.35
2018-03-31T05:46:38.994Z,20.37
2018-03-31T05:47:10.617Z,20.38
2018-03-31T05:47:42.238Z,20.38
2018-03-31T05:48:13.866Z,20.41
2018-03-31T05:48:45.494Z,20.39
2018-03-31T05:49:17.118Z,20.40
2018-03-31T05:49:48.742Z,20.41
2018-03-31T05:50:20.365Z,20.41
2018-03-31T05:50:51.987Z,20.41
2018-03-31T05:51:23.659Z,20.44
2018-03-31T05:51:55.282Z,20.43
2018-03-31T05:52:26.915Z,20.41
2018-03-31T05:52:58.539Z,20.43
2018-03-31T05:53:30.162Z,20.44
2018-03-31T05:54:01.786Z,20.45
2018-03-31T05:54:33.406Z,20.46
2018-03-31T05:55:05.034Z,20.48
2018-03-31T05:55:36.666Z,20.47
2018-03-31T05:56:08.298Z,20.49
2018-03-31T05:56:39.966Z,20.48
2018-03-31T05:57:11.600Z,20.46
2018-03-31T05:57:43.237Z,20.44
2018-03-31T05:58:14.866Z,20.41
2018-03-31T05:58:46.491Z,20.40
2018-03-31T05:59:18.167Z,20.40
2018-03-31T05:59:55.894Z,20.40
2018-03-31T06:00:27.517Z,20.38
2018-03-31T06:00:59.145Z,20.37
2018-03-31T06:01:30.782Z,20.38
2018-03-31T06:02:02.428Z,20.36
2018-03-31T06:02:34.058Z,20.36
2018-03-31T06:03:05.687Z,20.35
2018-03-31T06:03:37.338Z,20.33
2018-03-31T06:04:08.974Z,20.34
2018-03-31T06:04:40.650Z,20.31
2018-03-31T06:05:12.332Z,20.33
2018-03-31T06:05:43.970Z,20.34
2018-03-31T06:06:15.598Z,20.33
2018-03-31T06:06:47.221Z,20.32
2018-03-31T06:07:18.850Z,20.34
2018-03-31T06:07:50.487Z,20.31
2018-03-31T06:08:22.110Z,20.30
2018-03-31T06:08:53.735Z,20.28
2018-03-31T06:09:25.366Z,20.27
2018-03-31T06:09:56.998Z,20.25
2018-03-31T06:10:28.666Z,20.23
2018-03-31T06:11:00.291Z,20.20
2018-03-31T06:11:31.918Z,20.22
2018-03-31T06:12:03.545Z,20.20
2018-03-31T06:12:35.176Z,20.19
2018-03-31T06:13:06.807Z,20.18
2018-03-31T06:13:38.434Z,20.15
2018-03-31T06:14:10.063Z,20.16
2018-03-31T06:14:41.747Z,20.13
2018-03-31T06:15:13.382Z,20.12
2018-03-31T06:15:45.006Z,20.08
2018-03-31T06:16:16.637Z,20.08
2018-03-31T06:16:48.267Z,20.06
2018-03-31T06:17:19.899Z,20.03
2018-03-31T06:17:51.526Z,20.02
2018-03-31T06:18:23.843Z,19.93
2018-03-31T06:18:55.477Z,19.99
2018-03-31T06:19:27.146Z,20.01
2018-03-31T06:19:58.770Z,20.00
2018-03-31T06:20:30.399Z,19.98
2018-03-31T06:21:02.029Z,19.98
2018-03-31T06:21:33.663Z,19.97
2018-03-31T06:22:05.338Z,19.97
2018-03-31T06:22:36.967Z,19.96
2018-03-31T06:23:08.598Z,19.96
2018-03-31T06:23:40.228Z,19.97
2018-03-31T06:24:11.850Z,19.95
2018-03-31T06:24:43.478Z,19.95
2018-03-31T06:25:15.102Z,19.95
2018-03-31T06:25:46.730Z,19.97
2018-03-31T06:26:18.423Z,19.98
2018-03-31T06:26:50.047Z,19.98
2018-03-31T06:27:21.669Z,19.97
2018-03-31T06:27:53.296Z,19.79
2018-03-31T06:28:24.919Z,19.97
2018-03-31T06:28:56.546Z,19.98
2018-03-31T06:29:28.498Z,19.99
2018-03-31T06:30:00.122Z,20.01
2018-03-31T06:30:31.875Z,20.01
2018-03-31T06:31:03.482Z,20.01
2018-03-31T06:31:35.109Z,20.02
2018-03-31T06:32:06.736Z,20.02
2018-03-31T06:32:38.427Z,20.00
2018-03-31T06:33:10.050Z,20.02
2018-03-31T06:33:41.673Z,20.03
2018-03-31T06:34:13.302Z,20.07
2018-03-31T06:34:44.930Z,20.08
2018-03-31T06:35:16.601Z,20.11
2018-03-31T06:35:48.235Z,20.12
2018-03-31T06:36:19.857Z,20.13
2018-03-31T06:36:51.481Z,20.14
2018-03-31T06:37:23.154Z,20.12
2018-03-31T06:37:54.814Z,20.17
2018-03-31T06:38:26.441Z,20.15
2018-03-31T06:38:58.075Z,20.17
2018-03-31T06:39:29.703Z,20.17
2018-03-31T06:40:01.335Z,20.19
2018-03-31T06:40:33.001Z,20.22
2018-03-31T06:41:04.626Z,20.23
2018-03-31T06:41:36.264Z,20.28
2018-03-31T06:42:07.895Z,20.29
2018-03-31T06:42:39.518Z,20.27
2018-03-31T06:43:11.146Z,20.27
2018-03-31T06:43:42.774Z,20.28
2018-03-31T06:44:14.439Z,20.29
2018-03-31T06:44:46.075Z,20.29
2018-03-31T06:45:17.742Z,20.26
2018-03-31T06:45:49.367Z,20.27
2018-03-31T06:46:20.990Z,20.27
2018-03-31T06:46:52.610Z,20.26
2018-03-31T06:47:24.233Z,20.28
2018-03-31T06:47:55.858Z,20.29